createdAt,value
2018-07-31T00:03:44.361Z,4.90
2018-07-31T00:08:28.703Z,5.00
2018-07-31T00:13:13.009Z,5.63
2018-07-31T00:17:57.295Z,5.30
2018-07-31T00:22:41.721Z,5.30
2018-07-31T00:27:26.193Z,5.30
2018-07-31T00:32:10.476Z,4.87
2018-07-31T00:36:55.831Z,4.50
2018-07-31T00:41:40.748Z,5.07
2018-07-31T00:46:24.987Z,5.73
2018-07-31T00:51:09.325Z,5.13
2018-07-31T00:55:53.710Z,5.27
2018-07-31T01:00:38.089Z,5.47
2018-07-31T01:05:22.411Z,5.27
2018-07-31T01:10:06.822Z,5.40
2018-07-31T01:14:51.103Z,5.50
2018-07-31T01:19:35.509Z,5.77
2018-07-31T01:24:19.974Z,5.10
2018-07-31T01:29:04.415Z,6.03
2018-07-31T01:33:48.658Z,6.27
2018-07-31T01:38:33.007Z,6.10
2018-07-31T01:43:17.301Z,5.87
2018-07-31T01:48:01.607Z,5.93
2018-07-31T01:52:45.928Z,5.97
2018-07-31T01:57:30.309Z,5.83
2018-07-31T02:02:14.693Z,6.07
2018-07-31T02:06:59.021Z,5.43
2018-07-31T02:11:43.356Z,5.80
2018-07-31T02:16:27.735Z,5.50
2018-07-31T02:21:11.981Z,5.60
2018-07-31T02:25:56.393Z,5.20
2018-07-31T02:30:40.370Z,5.33
2018-07-31T02:35:24.587Z,5.57
2018-07-31T02:40:09.059Z,5.80
2018-07-31T02:44:53.513Z,5.60
2018-07-31T02:49:37.893Z,5.63
2018-07-31T02:54:22.237Z,5.63
2018-07-31T02:59:07.873Z,5.63
2018-07-31T03:03:52.188Z,5.80
2018-07-31T03:08:36.597Z,5.33
2018-07-31T03:13:21.073Z,5.73
2018-07-31T03:18:05.363Z,5.60
2018-07-31T03:22:49.639Z,5.00
2018-07-31T03:27:34.011Z,4.93
2018-07-31T03:32:18.280Z,4.80
2018-07-31T03:37:02.683Z,4.77
2018-07-31T03:41:47.032Z,5.73
2018-07-31T03:46:31.329Z,5.10
2018-07-31T03:51:15.615Z,5.30
2018-07-31T03:55:59.970Z,5.33
2018-07-31T04:00:44.257Z,5.33
2018-07-31T04:05:28.633Z,5.53
2018-07-31T04:10:14.741Z,5.23
2018-07-31T04:14:59.038Z,5.73
2018-07-31T04:19:43.398Z,5.70
2018-07-31T04:24:27.807Z,5.23
2018-07-31T04:29:12.084Z,5.30
2018-07-31T04:33:56.313Z,5.37
2018-07-31T04:38:40.531Z,5.43
2018-07-31T04:43:25.598Z,4.90
2018-07-31T04:48:09.843Z,5.57
2018-07-31T04:52:54.127Z,5.07
2018-07-31T04:57:38.418Z,5.40
2018-07-31T05:02:22.720Z,5.10
2018-07-31T05:07:07.049Z,4.97
2018-07-31T05:11:51.380Z,5.10
2018-07-31T05:16:35.672Z,4.70
2018-07-31T05:21:20.079Z,4.77
2018-07-31T05:26:04.594Z,4.80
2018-07-31T05:30:49.030Z,5.10
2018-07-31T05:35:34.385Z,4.83
2018-07-31T05:40:18.737Z,5.60
2018-07-31T05:45:03.020Z,5.13
2018-07-31T05:49:47.467Z,5.27
2018-07-31T05:54:31.775Z,5.53
2018-07-31T05:59:16.077Z,5.43
2018-07-31T06:04:00.667Z,4.83
2018-07-31T06:08:45.901Z,5.67
2018-07-31T06:13:30.278Z,5.53
2018-07-31T06:18:14.567Z,5.10
2018-07-31T06:22:58.955Z,5.03
2018-07-31T06:27:43.704Z,4.83
2018-07-31T06:32:28.107Z,4.70
2018-07-31T06:37:13.559Z,4.85
2018-07-31T06:41:58.077Z,4.87
2018-07-31T06:46:42.467Z,4.95
2018-07-31T06:51:26.821Z,4.80
2018-07-31T06:56:11.128Z,4.53
2018-07-31T07:00:55.396Z,4.85
2018-07-31T07:05:39.667Z,4.58
2018-07-31T07:10:23.849Z,4.72
2018-07-31T07:15:08.157Z,4.72
2018-07-31T07:19:52.537Z,5.10
2018-07-31T07:24:36.870Z,5.15
2018-07-31T07:29:21.137Z,4.80
2018-07-31T07:34:05.157Z,4.80
2018-07-31T07:38:49.349Z,5.10
2018-07-31T07:43:33.691Z,5.25
2018-07-31T07:48:17.949Z,5.28
2018-07-31T07:53:02.274Z,4.72
2018-07-31T07:57:46.570Z,5.08
2018-07-31T08:02:30.921Z,5.08
2018-07-31T08:07:15.326Z,5.10
2018-07-31T08:11:59.797Z,5.33
2018-07-31T08:16:44.108Z,4.87
2018-07-31T08:21:28.623Z,4.62
2018-07-31T08:26:12.924Z,5.10
2018-07-31T08:30:57.315Z,4.35
2018-07-31T08:35:41.780Z,4.72
2018-07-31T08:40:26.373Z,4.28
2018-07-31T08:45:10.873Z,4.30
2018-07-31T08:49:55.365Z,4.35
2018-07-31T08:54:39.637Z,4.47
2018-07-31T08:59:24.351Z,4.17
2018-07-31T09:04:08.786Z,4.67
2018-07-31T09:08:53.257Z,4.60
2018-07-31T09:13:37.627Z,4.62
2018-07-31T09:18:21.907Z,4.62
2018-07-31T09:23:06.243Z,4.50
2018-07-31T09:27:50.648Z,4.30
2018-07-31T09:32:40.306Z,4.50
2018-07-31T09:37:24.801Z,4.65
2018-07-31T09:42:09.081Z,4.28
2018-07-31T09:46:53.320Z,4.90
2018-07-31T09:51:37.669Z,4.80
2018-07-31T09:56:22.169Z,4.90
2018-07-31T10:01:11.883Z,4.65
2018-07-31T10:05:56.240Z,4.72
2018-07-31T10:10:40.643Z,4.70
2018-07-31T10:15:24.840Z,4.28
2018-07-31T10:20:09.173Z,4.65
2018-07-31T10:24:53.417Z,4.72
2018-07-31T10:29:37.769Z,4.92
2018-07-31T10:34:22.208Z,4.62
2018-07-31T10:39:08.264Z,3.90
2018-07-31T10:43:52.690Z,5.05
2018-07-31T10:48:37.090Z,5.03
2018-07-31T10:53:21.470Z,4.50
2018-07-31T10:58:05.934Z,5.05
2018-07-31T11:02:50.145Z,4.55
2018-07-31T11:07:34.519Z,4.45
2018-07-31T11:12:19.018Z,4.25
2018-07-31T11:17:03.477Z,4.47
2018-07-31T11:21:47.792Z,4.00
2018-07-31T11:26:32.095Z,4.33
2018-07-31T11:31:16.490Z,4.80
2018-07-31T11:36:00.763Z,4.80
2018-07-31T11:40:45.100Z,4.17
2018-07-31T11:45:29.377Z,4.30
2018-07-31T11:50:13.687Z,4.20
2018-07-31T11:54:57.997Z,4.60
2018-07-31T11:59:42.385Z,4.50
2018-07-31T12:04:26.700Z,4.87
2018-07-31T12:09:12.635Z,4.20
2018-07-31T12:13:57.125Z,4.53
2018-07-31T12:18:41.396Z,4.30
2018-07-31T12:23:25.805Z,4.22
2018-07-31T12:28:10.161Z,4.55
2018-07-31T12:32:54.794Z,4.45
2018-07-31T12:37:39.177Z,4.70
2018-07-31T12:42:23.688Z,4.70
2018-07-31T12:47:07.983Z,4.30
2018-07-31T12:51:52.420Z,4.10
2018-07-31T12:56:36.752Z,4.30
2018-07-31T13:01:21.223Z,4.15
2018-07-31T13:06:06.355Z,5.22
2018-07-31T13:10:50.814Z,4.65
2018-07-31T13:15:35.116Z,4.53
2018-07-31T13:20:19.588Z,4.65
2018-07-31T13:25:04.194Z,4.85
2018-07-31T13:29:48.758Z,4.58
2018-07-31T13:34:33.334Z,4.37
2018-07-31T13:39:17.626Z,4.28
2018-07-31T13:44:02.053Z,4.58
2018-07-31T13:48:46.283Z,4.50
2018-07-31T13:53:30.557Z,4.40
2018-07-31T13:58:14.960Z,4.22
2018-07-31T14:02:59.273Z,4.53
2018-07-31T14:07:43.644Z,4.53
2018-07-31T14:12:27.972Z,4.50
2018-07-31T14:17:12.358Z,4.22
2018-07-31T14:21:56.654Z,4.40
2018-07-31T14:26:41.060Z,4.47
2018-07-31T14:31:25.460Z,4.12
2018-07-31T14:36:09.831Z,4.45
2018-07-31T14:40:54.154Z,4.62
2018-07-31T14:45:38.493Z,4.40
2018-07-31T14:50:22.981Z,4.33
2018-07-31T14:55:07.622Z,4.80
2018-07-31T14:59:52.186Z,3.98
2018-07-31T15:04:36.567Z,4.12
2018-07-31T15:09:20.941Z,4.65
2018-07-31T15:14:05.516Z,4.53
2018-07-31T15:18:49.835Z,4.30
2018-07-31T15:23:34.435Z,4.25
2018-07-31T15:28:18.660Z,4.60
2018-07-31T15:33:03.080Z,4.55
2018-07-31T15:37:47.483Z,4.17
2018-07-31T15:42:31.840Z,4.20
2018-07-31T15:47:16.182Z,4.50
2018-07-31T15:52:00.643Z,4.62
2018-07-31T15:56:45.129Z,4.25
2018-07-31T16:01:29.537Z,4.30
2018-07-31T16:06:14.065Z,4.30
2018-07-31T16:10:58.476Z,4.60
2018-07-31T16:15:42.883Z,4.30
2018-07-31T16:20:27.233Z,5.15
2018-07-31T16:25:11.652Z,4.50
2018-07-31T16:29:55.972Z,4.42
2018-07-31T16:34:40.420Z,4.15
2018-07-31T16:39:24.799Z,4.45
2018-07-31T16:44:09.003Z,4.45
2018-07-31T16:48:53.308Z,4.25
2018-07-31T16:53:37.590Z,4.12
2018-07-31T16:58:21.811Z,4.60
2018-07-31T17:03:06.139Z,3.98
2018-07-31T17:07:50.436Z,4.33
2018-07-31T17:12:34.829Z,4.03
2018-07-31T17:17:19.055Z,4.00
2018-07-31T17:22:03.244Z,4.12
2018-07-31T17:26:47.601Z,4.42
2018-07-31T17:31:31.979Z,4.00
2018-07-31T17:36:16.299Z,4.33
2018-07-31T17:41:00.508Z,4.03
2018-07-31T17:45:44.972Z,4.35
2018-07-31T17:50:29.314Z,4.10
2018-07-31T17:55:13.603Z,4.25
2018-07-31T17:59:57.877Z,4.10
2018-07-31T18:04:42.432Z,4.37
2018-07-31T18:09:26.722Z,4.42
2018-07-31T18:14:11.209Z,4.87
2018-07-31T18:18:55.484Z,4.00
2018-07-31T18:23:40.041Z,4.37
2018-07-31T18:28:24.454Z,4.15
2018-07-31T18:33:08.882Z,3.83
2018-07-31T18:37:53.130Z,3.90
2018-07-31T18:42:37.402Z,4.05
2018-07-31T18:47:21.749Z,3.87
2018-07-31T18:52:05.951Z,4.15
2018-07-31T18:56:50.333Z,3.75
2018-07-31T19:01:34.726Z,3.90
2018-07-31T19:06:19.744Z,3.90
2018-07-31T19:11:03.895Z,3.90
2018-07-31T19:15:48.312Z,4.30
2018-07-31T19:20:32.545Z,3.90
2018-07-31T19:25:16.919Z,3.73
2018-07-31T19:30:01.320Z,4.22
2018-07-31T19:34:45.686Z,3.87
2018-07-31T19:39:30.161Z,4.50
2018-07-31T19:44:14.453Z,4.03
2018-07-31T19:48:58.835Z,3.87
2018-07-31T19:53:43.131Z,4.30
2018-07-31T19:58:27.437Z,3.70
2018-07-31T20:03:11.717Z,4.10
2018-07-31T20:07:56.022Z,3.60
2018-07-31T20:12:40.269Z,3.93
2018-07-31T20:17:24.500Z,3.80
2018-07-31T20:22:14.280Z,4.17
2018-07-31T20:26:58.588Z,3.77
2018-07-31T20:31:43.034Z,4.10
2018-07-31T20:36:27.629Z,4.50
2018-07-31T20:41:11.922Z,4.47
2018-07-31T20:45:56.270Z,4.60
2018-07-31T20:50:40.556Z,4.70
2018-07-31T20:55:24.921Z,4.90
2018-07-31T21:00:10.213Z,4.50
2018-07-31T21:04:54.630Z,4.97
2018-07-31T21:09:39.402Z,4.20
2018-07-31T21:14:23.700Z,5.03
2018-07-31T21:19:07.958Z,4.83
2018-07-31T21:23:52.239Z,4.57
2018-07-31T21:28:36.631Z,4.40
2018-07-31T21:33:20.957Z,4.80
2018-07-31T21:38:05.242Z,4.63
2018-07-31T21:42:49.466Z,5.03
2018-07-31T21:47:33.792Z,5.00
2018-07-31T21:52:18.171Z,5.33
2018-07-31T21:57:02.400Z,5.10
2018-07-31T22:01:46.719Z,5.03
2018-07-31T22:06:30.975Z,5.43
2018-07-31T22:11:15.273Z,5.10
2018-07-31T22:15:59.706Z,5.30
2018-07-31T22:20:45.134Z,5.10
2018-07-31T22:25:29.696Z,5.20
2018-07-31T22:30:14.167Z,5.10
2018-07-31T22:34:58.555Z,5.10
2018-07-31T22:39:42.829Z,5.20
2018-07-31T22:44:27.153Z,4.90
2018-07-31T22:49:11.615Z,5.10
2018-07-31T22:53:55.892Z,5.20
2018-07-31T22:58:40.402Z,5.37
2018-07-31T23:03:25.137Z,5.23
2018-07-31T23:08:09.408Z,4.83
2018-07-31T23:12:53.706Z,5.10
2018-07-31T23:17:37.944Z,5.07
2018-07-31T23:22:33.423Z,5.30
2018-07-31T23:27:17.895Z,5.57
2018-07-31T23:32:02.497Z,5.57
2018-07-31T23:36:46.958Z,6.17
2018-07-31T23:41:31.388Z,5.57
2018-07-31T23:46:15.872Z,5.70
2018-07-31T23:51:00.368Z,5.63
2018-07-31T23:55:44.786Z,6.10
